sensor_id;sensor_type;location;lat;lon;timestamp;P1;durP1;ratioP1;P2;durP2;ratioP2
54143;SDS011;40050;47.324;18.792;2022-08-01T00:01:27;4.41;;;3.18;;
54143;SDS011;40050;47.324;18.792;2022-08-01T00:03:28;4.98;;;3.18;;
54143;SDS011;40050;47.324;18.792;2022-08-01T00:05:29;4.79;;;3.28;;
54143;SDS011;40050;47.324;18.792;2022-08-01T00:07:30;5.36;;;3.48;;
54143;SDS011;40050;47.324;18.792;2022-08-01T00:09:31;4.97;;;3.48;;
54143;SDS011;40050;47.324;18.792;2022-08-01T00:11:32;5.54;;;3.28;;
54143;SDS011;40050;47.324;18.792;2022-08-01T00:13:33;4.11;;;3.18;;
54143;SDS011;40050;47.324;18.792;2022-08-01T00:15:35;4.20;;;3.38;;
54143;SDS011;40050;47.324;18.792;2022-08-01T00:17:36;3.72;;;3.18;;
54143;SDS011;40050;47.324;18.792;2022-08-01T00:19:37;3.82;;;3.38;;
54143;SDS011;40050;47.324;18.792;2022-08-01T00:21:38;5.73;;;3.28;;
54143;SDS011;40050;47.324;18.792;2022-08-01T00:23:39;5.73;;;3.37;;
54143;SDS011;40050;47.324;18.792;2022-08-01T00:25:40;4.77;;;3.18;;
54143;SDS011;40050;47.324;18.792;2022-08-01T00:27:41;3.43;;;2.98;;
54143;SDS011;40050;47.324;18.792;2022-08-01T00:29:42;5.63;;;3.28;;
54143;SDS011;40050;47.324;18.792;2022-08-01T00:31:43;3.43;;;3.18;;
54143;SDS011;40050;47.324;18.792;2022-08-01T00:33:44;5.15;;;3.27;;
54143;SDS011;40050;47.324;18.792;2022-08-01T00:35:45;3.91;;;2.98;;
54143;SDS011;40050;47.324;18.792;2022-08-01T00:37:46;3.43;;;3.18;;
54143;SDS011;40050;47.324;18.792;2022-08-01T00:39:47;5.24;;;3.37;;
54143;SDS011;40050;47.324;18.792;2022-08-01T00:41:48;4.19;;;3.27;;
54143;SDS011;40050;47.324;18.792;2022-08-01T00:43:49;4.58;;;3.47;;
54143;SDS011;40050;47.324;18.792;2022-08-01T00:45:50;3.82;;;3.37;;
54143;SDS011;40050;47.324;18.792;2022-08-01T00:47:51;4.29;;;3.37;;
54143;SDS011;40050;47.324;18.792;2022-08-01T00:49:52;4.29;;;3.57;;
54143;SDS011;40050;47.324;18.792;2022-08-01T00:51:54;3.24;;;2.98;;
54143;SDS011;40050;47.324;18.792;2022-08-01T00:53:55;5.24;;;3.77;;
54143;SDS011;40050;47.324;18.792;2022-08-01T00:55:57;5.33;;;3.67;;
54143;SDS011;40050;47.324;18.792;2022-08-01T00:57:59;4.47;;;3.67;;
54143;SDS011;40050;47.324;18.792;2022-08-01T01:00:00;4.94;;;3.77;;
54143;SDS011;40050;47.324;18.792;2022-08-01T01:02:01;5.32;;;4.07;;
54143;SDS011;40050;47.324;18.792;2022-08-01T01:04:02;7.12;;;4.56;;
54143;SDS011;40050;47.324;18.792;2022-08-01T01:06:20;5.41;;;4.16;;
54143;SDS011;40050;47.324;18.792;2022-08-01T01:08:35;6.16;;;4.16;;
54143;SDS011;40050;47.324;18.792;2022-08-01T01:13:05;5.12;;;4.26;;
54143;SDS011;40050;47.324;18.792;2022-08-01T01:15:10;5.49;;;4.16;;
54143;SDS011;40050;47.324;18.792;2022-08-01T01:17:12;6.06;;;4.66;;
54143;SDS011;40050;47.324;18.792;2022-08-01T01:19:16;6.90;;;4.36;;
54143;SDS011;40050;47.324;18.792;2022-08-01T01:26:01;5.68;;;4.36;;
54143;SDS011;40050;47.324;18.792;2022-08-01T01:30:13;4.92;;;4.26;;
54143;SDS011;40050;47.324;18.792;2022-08-01T01:32:33;6.16;;;4.16;;
54143;SDS011;40050;47.324;18.792;2022-08-01T01:34:23;6.54;;;3.96;;
54143;SDS011;40050;47.324;18.792;2022-08-01T01:36:28;5.50;;;3.96;;
54143;SDS011;40050;47.324;18.792;2022-08-01T01:38:33;5.41;;;4.16;;
54143;SDS011;40050;47.324;18.792;2022-08-01T01:40:34;6.07;;;4.26;;
54143;SDS011;40050;47.324;18.792;2022-08-01T01:42:37;6.16;;;4.46;;
54143;SDS011;40050;47.324;18.792;2022-08-01T01:44:40;5.31;;;4.06;;
54143;SDS011;40050;47.324;18.792;2022-08-01T01:46:42;4.17;;;3.86;;
54143;SDS011;40050;47.324;18.792;2022-08-01T01:48:48;7.48;;;3.96;;
54143;SDS011;40050;47.324;18.792;2022-08-01T01:50:52;5.40;;;4.16;;
54143;SDS011;40050;47.324;18.792;2022-08-01T01:52:55;5.86;;;3.96;;
54143;SDS011;40050;47.324;18.792;2022-08-01T01:54:59;5.11;;;4.06;;
54143;SDS011;40050;47.324;18.792;2022-08-01T01:57:01;5.40;;;4.06;;
54143;SDS011;40050;47.324;18.792;2022-08-01T01:59:03;6.82;;;4.16;;
54143;SDS011;40050;47.324;18.792;2022-08-01T02:01:05;4.73;;;3.96;;
54143;SDS011;40050;47.324;18.792;2022-08-01T02:03:08;6.43;;;4.46;;
54143;SDS011;40050;47.324;18.792;2022-08-01T02:05:11;6.24;;;4.06;;
54143;SDS011;40050;47.324;18.792;2022-08-01T02:07:19;6.32;;;4.26;;
54143;SDS011;40050;47.324;18.792;2022-08-01T02:09:15;4.90;;;4.06;;
54143;SDS011;40050;47.324;18.792;2022-08-01T02:11:16;5.08;;;3.96;;
54143;SDS011;40050;47.324;18.792;2022-08-01T02:13:19;4.71;;;3.96;;
54143;SDS011;40050;47.324;18.792;2022-08-01T02:15:22;4.99;;;3.76;;
54143;SDS011;40050;47.324;18.792;2022-08-01T02:17:23;4.99;;;3.66;;
54143;SDS011;40050;47.324;18.792;2022-08-01T02:19:24;5.37;;;4.06;;
54143;SDS011;40050;47.324;18.792;2022-08-01T02:21:27;4.33;;;3.36;;
54143;SDS011;40050;47.324;18.792;2022-08-01T02:23:31;5.65;;;3.76;;
54143;SDS011;40050;47.324;18.792;2022-08-01T02:25:50;5.09;;;3.66;;
54143;SDS011;40050;47.324;18.792;2022-08-01T02:28:03;4.33;;;3.66;;
54143;SDS011;40050;47.324;18.792;2022-08-01T02:29:59;4.81;;;3.96;;
54143;SDS011;40050;47.324;18.792;2022-08-01T02:32:02;5.56;;;3.96;;
54143;SDS011;40050;47.324;18.792;2022-08-01T02:34:21;5.28;;;3.66;;
54143;SDS011;40050;47.324;18.792;2022-08-01T02:36:25;4.43;;;3.76;;
54143;SDS011;40050;47.324;18.792;2022-08-01T02:38:27;4.99;;;3.66;;
54143;SDS011;40050;47.324;18.792;2022-08-01T02:40:28;4.80;;;4.06;;
54143;SDS011;40050;47.324;18.792;2022-08-01T02:42:30;5.37;;;3.86;;
54143;SDS011;40050;47.324;18.792;2022-08-01T02:44:35;6.02;;;3.56;;
54143;SDS011;40050;47.324;18.792;2022-08-01T02:46:39;4.14;;;3.66;;
54143;SDS011;40050;47.324;18.792;2022-08-01T02:48:46;7.24;;;3.86;;
54143;SDS011;40050;47.324;18.792;2022-08-01T02:50:49;6.96;;;3.76;;
54143;SDS011;40050;47.324;18.792;2022-08-01T02:52:51;5.73;;;3.95;;
54143;SDS011;40050;47.324;18.792;2022-08-01T02:54:54;6.20;;;3.76;;
54143;SDS011;40050;47.324;18.792;2022-08-01T02:56:55;7.33;;;3.76;;
54143;SDS011;40050;47.324;18.792;2022-08-01T02:58:57;6.02;;;4.55;;
54143;SDS011;40050;47.324;18.792;2022-08-01T03:00:59;5.54;;;3.95;;
54143;SDS011;40050;47.324;18.792;2022-08-01T03:03:01;5.45;;;3.86;;
54143;SDS011;40050;47.324;18.792;2022-08-01T03:05:04;5.55;;;3.86;;
54143;SDS011;40050;47.324;18.792;2022-08-01T03:07:06;5.55;;;3.86;;
54143;SDS011;40050;47.324;18.792;2022-08-01T03:09:07;4.80;;;3.66;;
54143;SDS011;40050;47.324;18.792;2022-08-01T03:11:09;5.83;;;3.96;;
54143;SDS011;40050;47.324;18.792;2022-08-01T03:13:10;5.55;;;3.86;;
54143;SDS011;40050;47.324;18.792;2022-08-01T03:15:13;5.73;;;3.76;;
54143;SDS011;40050;47.324;18.792;2022-08-01T03:17:16;6.39;;;3.85;;
54143;SDS011;40050;47.324;18.792;2022-08-01T03:19:17;6.95;;;3.85;;
54143;SDS011;40050;47.324;18.792;2022-08-01T03:21:20;5.06;;;3.95;;
54143;SDS011;40050;47.324;18.792;2022-08-01T03:23:22;6.10;;;4.25;;
54143;SDS011;40050;47.324;18.792;2022-08-01T03:25:24;5.54;;;4.05;;
54143;SDS011;40050;47.324;18.792;2022-08-01T03:27:27;6.48;;;4.05;;
54143;SDS011;40050;47.324;18.792;2022-08-01T03:29:33;6.10;;;4.45;;
54143;SDS011;40050;47.324;18.792;2022-08-01T03:31:37;5.35;;;4.45;;
54143;SDS011;40050;47.324;18.792;2022-08-01T03:33:35;5.25;;;3.75;;
54143;SDS011;40050;47.324;18.792;2022-08-01T03:35:37;6.19;;;4.45;;
54143;SDS011;40050;47.324;18.792;2022-08-01T03:37:44;6.94;;;4.45;;
54143;SDS011;40050;47.324;18.792;2022-08-01T03:41:48;8.44;;;4.35;;
54143;SDS011;40050;47.324;18.792;2022-08-01T03:45:53;5.73;;;4.35;;
54143;SDS011;40050;47.324;18.792;2022-08-01T03:48:01;5.35;;;4.25;;
54143;SDS011;40050;47.324;18.792;2022-08-01T03:50:02;7.60;;;4.84;;
54143;SDS011;40050;47.324;18.792;2022-08-01T03:52:03;7.50;;;4.54;;
54143;SDS011;40050;47.324;18.792;2022-08-01T03:54:04;5.62;;;4.54;;
54143;SDS011;40050;47.324;18.792;2022-08-01T03:56:07;8.53;;;4.94;;
54143;SDS011;40050;47.324;18.792;2022-08-01T03:58:09;6.09;;;4.44;;
54143;SDS011;40050;47.324;18.792;2022-08-01T04:00:09;7.30;;;4.84;;
54143;SDS011;40050;47.324;18.792;2022-08-01T04:02:11;7.96;;;4.44;;
54143;SDS011;40050;47.324;18.792;2022-08-01T04:04:12;7.21;;;4.84;;
54143;SDS011;40050;47.324;18.792;2022-08-01T04:06:13;6.73;;;4.64;;
54143;SDS011;40050;47.324;18.792;2022-08-01T04:08:21;6.63;;;4.84;;
54143;SDS011;40050;47.324;18.792;2022-08-01T04:10:22;8.02;;;5.23;;
54143;SDS011;40050;47.324;18.792;2022-08-01T04:12:23;8.85;;;5.13;;
54143;SDS011;40050;47.324;18.792;2022-08-01T04:14:25;7.72;;;5.22;;
54143;SDS011;40050;47.324;18.792;2022-08-01T04:16:25;7.06;;;5.22;;
54143;SDS011;40050;47.324;18.792;2022-08-01T04:18:26;6.49;;;5.22;;
54143;SDS011;40050;47.324;18.792;2022-08-01T04:20:28;8.88;;;5.02;;
54143;SDS011;40050;47.324;18.792;2022-08-01T04:22:29;8.49;;;5.11;;
54143;SDS011;40050;47.324;18.792;2022-08-01T04:24:31;6.55;;;4.62;;
54143;SDS011;40050;47.324;18.792;2022-08-01T04:26:34;7.19;;;4.82;;
54143;SDS011;40050;47.324;18.792;2022-08-01T04:28:36;7.74;;;5.70;;
54143;SDS011;40050;47.324;18.792;2022-08-01T04:30:38;7.64;;;5.11;;
54143;SDS011;40050;47.324;18.792;2022-08-01T04:32:41;8.93;;;5.40;;
54143;SDS011;40050;47.324;18.792;2022-08-01T04:34:44;7.28;;;5.11;;
54143;SDS011;40050;47.324;18.792;2022-08-01T04:36:46;7.47;;;5.11;;
54143;SDS011;40050;47.324;18.792;2022-08-01T04:38:52;6.54;;;5.21;;
54143;SDS011;40050;47.324;18.792;2022-08-01T04:40:52;6.82;;;4.82;;
54143;SDS011;40050;47.324;18.792;2022-08-01T04:42:53;6.91;;;5.01;;
54143;SDS011;40050;47.324;18.792;2022-08-01T04:44:55;5.90;;;4.62;;
54143;SDS011;40050;47.324;18.792;2022-08-01T04:46:57;6.45;;;4.92;;
54143;SDS011;40050;47.324;18.792;2022-08-01T04:48:58;8.22;;;4.82;;
54143;SDS011;40050;47.324;18.792;2022-08-01T04:50:59;5.35;;;4.52;;
54143;SDS011;40050;47.324;18.792;2022-08-01T04:53:12;5.73;;;4.33;;
54143;SDS011;40050;47.324;18.792;2022-08-01T04:55:08;5.91;;;4.62;;
54143;SDS011;40050;47.324;18.792;2022-08-01T04:57:08;5.07;;;4.23;;
54143;SDS011;40050;47.324;18.792;2022-08-01T04:59:10;5.82;;;4.43;;
54143;SDS011;40050;47.324;18.792;2022-08-01T05:01:11;5.17;;;4.33;;
54143;SDS011;40050;47.324;18.792;2022-08-01T05:03:12;8.40;;;4.23;;
54143;SDS011;40050;47.324;18.792;2022-08-01T05:05:13;4.98;;;4.33;;
54143;SDS011;40050;47.324;18.792;2022-08-01T05:07:15;7.01;;;4.03;;
54143;SDS011;40050;47.324;18.792;2022-08-01T05:09:15;6.91;;;4.32;;
54143;SDS011;40050;47.324;18.792;2022-08-01T05:11:16;5.81;;;4.62;;
54143;SDS011;40050;47.324;18.792;2022-08-01T05:13:18;5.26;;;4.13;;
54143;SDS011;40050;47.324;18.792;2022-08-01T05:15:18;5.26;;;4.13;;
54143;SDS011;40050;47.324;18.792;2022-08-01T05:17:20;5.54;;;4.43;;
54143;SDS011;40050;47.324;18.792;2022-08-01T05:19:21;4.90;;;3.94;;
54143;SDS011;40050;47.324;18.792;2022-08-01T05:21:22;4.92;;;3.94;;
54143;SDS011;40050;47.324;18.792;2022-08-01T05:23:22;6.24;;;3.75;;
54143;SDS011;40050;47.324;18.792;2022-08-01T05:25:24;8.49;;;4.34;;
54143;SDS011;40050;47.324;18.792;2022-08-01T05:27:25;10.01;;;4.25;;
54143;SDS011;40050;47.324;18.792;2022-08-01T05:29:26;12.63;;;4.16;;
54143;SDS011;40050;47.324;18.792;2022-08-01T05:31:27;12.06;;;4.35;;
54143;SDS011;40050;47.324;18.792;2022-08-01T05:33:28;11.90;;;4.06;;
54143;SDS011;40050;47.324;18.792;2022-08-01T05:35:29;14.30;;;4.95;;
54143;SDS011;40050;47.324;18.792;2022-08-01T05:37:30;12.03;;;4.95;;
54143;SDS011;40050;47.324;18.792;2022-08-01T05:39:31;11.00;;;4.56;;
54143;SDS011;40050;47.324;18.792;2022-08-01T05:41:32;13.29;;;4.86;;
54143;SDS011;40050;47.324;18.792;2022-08-01T05:43:33;14.18;;;4.76;;
54143;SDS011;40050;47.324;18.792;2022-08-01T05:45:34;8.98;;;4.67;;
54143;SDS011;40050;47.324;18.792;2022-08-01T05:47:35;12.98;;;4.47;;
54143;SDS011;40050;47.324;18.792;2022-08-01T05:49:37;12.63;;;4.37;;
54143;SDS011;40050;47.324;18.792;2022-08-01T05:51:38;13.88;;;4.77;;
54143;SDS011;40050;47.324;18.792;2022-08-01T05:53:39;8.25;;;4.17;;
54143;SDS011;40050;47.324;18.792;2022-08-01T05:55:40;9.34;;;4.28;;
54143;SDS011;40050;47.324;18.792;2022-08-01T05:57:41;9.72;;;4.18;;
54143;SDS011;40050;47.324;18.792;2022-08-01T05:59:42;7.81;;;3.68;;
54143;SDS011;40050;47.324;18.792;2022-08-01T06:01:43;5.13;;;3.88;;
54143;SDS011;40050;47.324;18.792;2022-08-01T06:03:44;5.14;;;3.49;;
54143;SDS011;40050;47.324;18.792;2022-08-01T06:05:46;6.41;;;3.39;;
54143;SDS011;40050;47.324;18.792;2022-08-01T06:07:47;6.52;;;3.49;;
54143;SDS011;40050;47.324;18.792;2022-08-01T06:09:48;4.96;;;3.59;;
54143;SDS011;40050;47.324;18.792;2022-08-01T06:11:49;6.80;;;3.59;;
54143;SDS011;40050;47.324;18.792;2022-08-01T06:13:51;4.88;;;2.99;;
54143;SDS011;40050;47.324;18.792;2022-08-01T06:15:52;4.58;;;3.59;;
54143;SDS011;40050;47.324;18.792;2022-08-01T06:17:53;6.45;;;2.99;;
54143;SDS011;40050;47.324;18.792;2022-08-01T06:19:54;4.60;;;3.19;;
54143;SDS011;40050;47.324;18.792;2022-08-01T06:21:55;4.99;;;3.49;;
54143;SDS011;40050;47.324;18.792;2022-08-01T06:23:56;5.67;;;3.19;;
54143;SDS011;40050;47.324;18.792;2022-08-01T06:25:57;6.86;;;3.19;;
54143;SDS011;40050;47.324;18.792;2022-08-01T06:27:58;5.59;;;3.39;;
54143;SDS011;40050;47.324;18.792;2022-08-01T06:30:01;5.20;;;3.29;;
54143;SDS011;40050;47.324;18.792;2022-08-01T06:32:02;4.22;;;3.09;;
54143;SDS011;40050;47.324;18.792;2022-08-01T06:34:03;5.80;;;3.09;;
54143;SDS011;40050;47.324;18.792;2022-08-01T06:36:04;5.80;;;2.60;;
54143;SDS011;40050;47.324;18.792;2022-08-01T06:38:05;4.63;;;3.00;;
54143;SDS011;40050;47.324;18.792;2022-08-01T06:40:07;4.63;;;2.90;;
54143;SDS011;40050;47.324;18.792;2022-08-01T06:42:07;4.04;;;2.70;;
54143;SDS011;40050;47.324;18.792;2022-08-01T06:44:08;3.95;;;2.90;;
54143;SDS011;40050;47.324;18.792;2022-08-01T06:46:12;4.24;;;3.00;;
54143;SDS011;40050;47.324;18.792;2022-08-01T06:48:14;7.61;;;3.10;;
54143;SDS011;40050;47.324;18.792;2022-08-01T06:50:14;6.73;;;3.00;;
54143;SDS011;40050;47.324;18.792;2022-08-01T06:52:15;6.23;;;2.70;;
54143;SDS011;40050;47.324;18.792;2022-08-01T06:54:16;4.45;;;2.70;;
54143;SDS011;40050;47.324;18.792;2022-08-01T06:56:17;3.66;;;2.60;;
54143;SDS011;40050;47.324;18.792;2022-08-01T06:58:19;7.33;;;3.20;;
54143;SDS011;40050;47.324;18.792;2022-08-01T07:00:21;5.84;;;2.70;;
54143;SDS011;40050;47.324;18.792;2022-08-01T07:02:22;5.55;;;2.70;;
54143;SDS011;40050;47.324;18.792;2022-08-01T07:04:22;6.64;;;2.90;;
54143;SDS011;40050;47.324;18.792;2022-08-01T07:06:24;5.05;;;2.60;;
54143;SDS011;40050;47.324;18.792;2022-08-01T07:08:25;5.16;;;3.30;;
54143;SDS011;40050;47.324;18.792;2022-08-01T07:10:25;6.64;;;2.60;;
54143;SDS011;40050;47.324;18.792;2022-08-01T07:12:27;3.96;;;2.40;;
54143;SDS011;40050;47.324;18.792;2022-08-01T07:14:28;6.83;;;2.80;;
54143;SDS011;40050;47.324;18.792;2022-08-01T07:16:29;4.07;;;2.60;;
54143;SDS011;40050;47.324;18.792;2022-08-01T07:18:30;6.45;;;2.50;;
54143;SDS011;40050;47.324;18.792;2022-08-01T07:20:32;6.85;;;2.70;;
54143;SDS011;40050;47.324;18.792;2022-08-01T07:22:33;4.47;;;2.30;;
54143;SDS011;40050;47.324;18.792;2022-08-01T07:24:34;5.56;;;2.60;;
54143;SDS011;40050;47.324;18.792;2022-08-01T07:26:35;6.66;;;2.80;;
54143;SDS011;40050;47.324;18.792;2022-08-01T07:28:36;3.38;;;2.70;;
54143;SDS011;40050;47.324;18.792;2022-08-01T07:30:38;3.38;;;2.40;;
54143;SDS011;40050;47.324;18.792;2022-08-01T07:32:39;3.78;;;2.80;;
54143;SDS011;40050;47.324;18.792;2022-08-01T07:34:40;3.68;;;2.50;;
54143;SDS011;40050;47.324;18.792;2022-08-01T07:36:41;4.78;;;2.70;;
54143;SDS011;40050;47.324;18.792;2022-08-01T07:38:42;3.29;;;2.70;;
54143;SDS011;40050;47.324;18.792;2022-08-01T07:40:43;3.89;;;2.50;;
54143;SDS011;40050;47.324;18.792;2022-08-01T07:42:45;4.68;;;2.50;;
54143;SDS011;40050;47.324;18.792;2022-08-01T07:44:46;4.78;;;2.70;;
54143;SDS011;40050;47.324;18.792;2022-08-01T07:46:47;4.38;;;2.70;;
54143;SDS011;40050;47.324;18.792;2022-08-01T07:48:48;3.49;;;2.70;;
54143;SDS011;40050;47.324;18.792;2022-08-01T07:50:50;3.49;;;2.70;;
54143;SDS011;40050;47.324;18.792;2022-08-01T07:52:50;6.67;;;2.80;;
54143;SDS011;40050;47.324;18.792;2022-08-01T07:54:52;4.98;;;2.90;;
54143;SDS011;40050;47.324;18.792;2022-08-01T07:56:53;4.88;;;2.90;;
54143;SDS011;40050;47.324;18.792;2022-08-01T07:58:54;3.19;;;2.70;;
54143;SDS011;40050;47.324;18.792;2022-08-01T08:00:55;3.88;;;2.50;;
54143;SDS011;40050;47.324;18.792;2022-08-01T08:02:56;5.38;;;2.70;;
54143;SDS011;40050;47.324;18.792;2022-08-01T08:04:58;4.38;;;2.60;;
54143;SDS011;40050;47.324;18.792;2022-08-01T08:06:59;5.97;;;3.00;;
54143;SDS011;40050;47.324;18.792;2022-08-01T08:09:00;5.67;;;2.80;;
54143;SDS011;40050;47.324;18.792;2022-08-01T08:11:01;5.27;;;2.90;;
54143;SDS011;40050;47.324;18.792;2022-08-01T08:13:02;4.68;;;2.50;;
54143;SDS011;40050;47.324;18.792;2022-08-01T08:15:04;4.18;;;2.60;;
54143;SDS011;40050;47.324;18.792;2022-08-01T08:17:05;3.68;;;2.80;;
54143;SDS011;40050;47.324;18.792;2022-08-01T08:19:06;4.28;;;2.60;;
54143;SDS011;40050;47.324;18.792;2022-08-01T08:21:07;5.17;;;2.80;;
54143;SDS011;40050;47.324;18.792;2022-08-01T08:23:08;3.08;;;2.60;;
54143;SDS011;40050;47.324;18.792;2022-08-01T08:25:09;2.98;;;2.70;;
54143;SDS011;40050;47.324;18.792;2022-08-01T08:27:10;3.88;;;2.80;;
54143;SDS011;40050;47.324;18.792;2022-08-01T08:29:11;4.28;;;2.90;;
54143;SDS011;40050;47.324;18.792;2022-08-01T08:31:12;3.38;;;2.50;;
54143;SDS011;40050;47.324;18.792;2022-08-01T08:33:14;4.47;;;3.10;;
54143;SDS011;40050;47.324;18.792;2022-08-01T08:35:15;5.57;;;2.80;;
54143;SDS011;40050;47.324;18.792;2022-08-01T08:37:17;4.87;;;3.00;;
54143;SDS011;40050;47.324;18.792;2022-08-01T08:39:18;5.17;;;3.30;;
54143;SDS011;40050;47.324;18.792;2022-08-01T08:41:19;5.26;;;2.90;;
54143;SDS011;40050;47.324;18.792;2022-08-01T08:43:21;3.28;;;2.90;;
54143;SDS011;40050;47.324;18.792;2022-08-01T08:45:22;3.67;;;2.80;;
54143;SDS011;40050;47.324;18.792;2022-08-01T08:47:24;6.75;;;2.90;;
54143;SDS011;40050;47.324;18.792;2022-08-01T08:49:26;4.76;;;2.90;;
54143;SDS011;40050;47.324;18.792;2022-08-01T08:51:26;4.87;;;3.10;;
54143;SDS011;40050;47.324;18.792;2022-08-01T08:53:30;4.37;;;3.00;;
54143;SDS011;40050;47.324;18.792;2022-08-01T08:55:32;3.98;;;2.90;;
54143;SDS011;40050;47.324;18.792;2022-08-01T08:57:34;4.77;;;2.90;;
54143;SDS011;40050;47.324;18.792;2022-08-01T08:59:35;4.47;;;3.10;;
54143;SDS011;40050;47.324;18.792;2022-08-01T09:01:36;6.06;;;3.10;;
54143;SDS011;40050;47.324;18.792;2022-08-01T09:03:38;4.87;;;3.00;;
54143;SDS011;40050;47.324;18.792;2022-08-01T09:05:39;4.27;;;3.10;;
54143;SDS011;40050;47.324;18.792;2022-08-01T09:07:40;4.47;;;2.90;;
54143;SDS011;40050;47.324;18.792;2022-08-01T09:09:41;5.46;;;3.30;;
54143;SDS011;40050;47.324;18.792;2022-08-01T09:11:43;5.77;;;3.10;;
54143;SDS011;40050;47.324;18.792;2022-08-01T09:14:30;4.58;;;2.90;;
54143;SDS011;40050;47.324;18.792;2022-08-01T09:15:47;3.88;;;2.80;;
54143;SDS011;40050;47.324;18.792;2022-08-01T09:17:47;4.47;;;3.00;;
54143;SDS011;40050;47.324;18.792;2022-08-01T09:19:51;4.28;;;2.60;;
54143;SDS011;40050;47.324;18.792;2022-08-01T09:22:10;3.28;;;2.60;;
54143;SDS011;40050;47.324;18.792;2022-08-01T09:24:15;5.47;;;3.10;;
54143;SDS011;40050;47.324;18.792;2022-08-01T09:26:29;4.08;;;3.00;;
54143;SDS011;40050;47.324;18.792;2022-08-01T09:28:33;4.08;;;2.80;;
54143;SDS011;40050;47.324;18.792;2022-08-01T09:30:44;2.89;;;2.60;;
54143;SDS011;40050;47.324;18.792;2022-08-01T09:32:55;2.99;;;2.50;;
54143;SDS011;40050;47.324;18.792;2022-08-01T09:34:47;6.87;;;2.80;;
54143;SDS011;40050;47.324;18.792;2022-08-01T09:36:49;4.48;;;2.90;;
54143;SDS011;40050;47.324;18.792;2022-08-01T09:38:51;4.08;;;2.90;;
54143;SDS011;40050;47.324;18.792;2022-08-01T09:40:53;4.08;;;3.00;;
54143;SDS011;40050;47.324;18.792;2022-08-01T09:43:10;5.47;;;3.10;;
54143;SDS011;40050;47.324;18.792;2022-08-01T09:45:30;7.46;;;3.00;;
54143;SDS011;40050;47.324;18.792;2022-08-01T09:47:23;5.97;;;2.70;;
54143;SDS011;40050;47.324;18.792;2022-08-01T09:49:31;4.78;;;2.90;;
54143;SDS011;40050;47.324;18.792;2022-08-01T09:51:36;4.08;;;2.80;;
54143;SDS011;40050;47.324;18.792;2022-08-01T09:53:40;4.58;;;2.80;;
54143;SDS011;40050;47.324;18.792;2022-08-01T09:55:36;4.78;;;2.90;;
54143;SDS011;40050;47.324;18.792;2022-08-01T09:57:54;5.38;;;2.70;;
54143;SDS011;40050;47.324;18.792;2022-08-01T09:59:46;4.68;;;2.70;;
54143;SDS011;40050;47.324;18.792;2022-08-01T10:01:47;4.28;;;2.70;;
54143;SDS011;40050;47.324;18.792;2022-08-01T10:04:03;4.78;;;2.90;;
54143;SDS011;40050;47.324;18.792;2022-08-01T10:06:18;3.19;;;2.80;;
54143;SDS011;40050;47.324;18.792;2022-08-01T10:08:04;5.08;;;3.00;;
54143;SDS011;40050;47.324;18.792;2022-08-01T10:10:10;3.09;;;2.80;;
54143;SDS011;40050;47.324;18.792;2022-08-01T10:12:09;4.48;;;2.90;;
54143;SDS011;40050;47.324;18.792;2022-08-01T10:14:10;3.98;;;2.90;;
54143;SDS011;40050;47.324;18.792;2022-08-01T10:16:11;3.39;;;2.50;;
54143;SDS011;40050;47.324;18.792;2022-08-01T10:18:18;3.59;;;2.80;;
54143;SDS011;40050;47.324;18.792;2022-08-01T10:20:20;4.68;;;2.80;;
54143;SDS011;40050;47.324;18.792;2022-08-01T10:22:24;2.99;;;2.70;;
54143;SDS011;40050;47.324;18.792;2022-08-01T10:24:28;4.08;;;3.00;;
54143;SDS011;40050;47.324;18.792;2022-08-01T10:26:31;5.97;;;2.80;;
54143;SDS011;40050;47.324;18.792;2022-08-01T10:28:34;4.78;;;3.00;;
54143;SDS011;40050;47.324;18.792;2022-08-01T10:30:35;7.37;;;3.30;;
54143;SDS011;40050;47.324;18.792;2022-08-01T10:32:40;3.78;;;2.70;;
54143;SDS011;40050;47.324;18.792;2022-08-01T10:34:38;4.58;;;2.70;;
54143;SDS011;40050;47.324;18.792;2022-08-01T10:36:39;3.59;;;2.70;;
54143;SDS011;40050;47.324;18.792;2022-08-01T10:38:41;3.79;;;2.50;;
54143;SDS011;40050;47.324;18.792;2022-08-01T10:40:42;4.39;;;2.50;;
54143;SDS011;40050;47.324;18.792;2022-08-01T10:42:44;3.79;;;2.40;;
54143;SDS011;40050;47.324;18.792;2022-08-01T10:44:45;6.18;;;2.60;;
54143;SDS011;40050;47.324;18.792;2022-08-01T10:46:46;4.09;;;2.50;;
54143;SDS011;40050;47.324;18.792;2022-08-01T10:51:03;3.49;;;2.50;;
54143;SDS011;40050;47.324;18.792;2022-08-01T10:55:12;3.09;;;2.10;;
54143;SDS011;40050;47.324;18.792;2022-08-01T10:57:23;3.19;;;2.40;;
54143;SDS011;40050;47.324;18.792;2022-08-01T10:59:34;5.09;;;2.00;;
54143;SDS011;40050;47.324;18.792;2022-08-01T11:02:03;2.10;;;1.90;;
54143;SDS011;40050;47.324;18.792;2022-08-01T11:04:10;3.59;;;2.20;;
54143;SDS011;40050;47.324;18.792;2022-08-01T11:06:07;5.19;;;2.10;;
54143;SDS011;40050;47.324;18.792;2022-08-01T11:08:23;4.29;;;2.40;;
54143;SDS011;40050;47.324;18.792;2022-08-01T11:10:25;2.89;;;2.10;;
54143;SDS011;40050;47.324;18.792;2022-08-01T11:12:37;6.09;;;2.10;;
54143;SDS011;40050;47.324;18.792;2022-08-01T11:19:02;2.10;;;1.80;;
54143;SDS011;40050;47.324;18.792;2022-08-01T11:21:04;2.20;;;2.00;;
54143;SDS011;40050;47.324;18.792;2022-08-01T11:23:30;3.59;;;1.90;;
54143;SDS011;40050;47.324;18.792;2022-08-01T11:32:13;2.50;;;1.70;;
54143;SDS011;40050;47.324;18.792;2022-08-01T11:34:10;2.90;;;1.80;;
54143;SDS011;40050;47.324;18.792;2022-08-01T11:36:36;2.80;;;1.50;;
54143;SDS011;40050;47.324;18.792;2022-08-01T11:41:13;3.99;;;1.80;;
54143;SDS011;40050;47.324;18.792;2022-08-01T11:43:25;3.39;;;1.80;;
54143;SDS011;40050;47.324;18.792;2022-08-01T11:45:17;4.19;;;1.70;;
54143;SDS011;40050;47.324;18.792;2022-08-01T11:47:52;2.10;;;1.70;;
54143;SDS011;40050;47.324;18.792;2022-08-01T11:49:55;2.50;;;1.70;;
54143;SDS011;40050;47.324;18.792;2022-08-01T11:51:57;2.40;;;1.80;;
54143;SDS011;40050;47.324;18.792;2022-08-01T11:53:57;2.80;;;1.70;;
54143;SDS011;40050;47.324;18.792;2022-08-01T11:55:59;2.70;;;1.80;;
54143;SDS011;40050;47.324;18.792;2022-08-01T11:58:02;2.70;;;1.80;;
54143;SDS011;40050;47.324;18.792;2022-08-01T12:00:16;3.20;;;1.70;;
54143;SDS011;40050;47.324;18.792;2022-08-01T12:02:17;3.40;;;1.80;;
54143;SDS011;40050;47.324;18.792;2022-08-01T12:04:17;2.50;;;1.70;;
54143;SDS011;40050;47.324;18.792;2022-08-01T12:06:26;3.99;;;1.50;;
54143;SDS011;40050;47.324;18.792;2022-08-01T12:08:26;1.70;;;1.60;;
54143;SDS011;40050;47.324;18.792;2022-08-01T12:10:37;2.40;;;1.60;;
54143;SDS011;40050;47.324;18.792;2022-08-01T12:12:52;2.40;;;1.50;;
54143;SDS011;40050;47.324;18.792;2022-08-01T12:14:39;1.90;;;1.60;;
54143;SDS011;40050;47.324;18.792;2022-08-01T12:16:47;3.50;;;1.70;;
54143;SDS011;40050;47.324;18.792;2022-08-01T12:18:43;3.60;;;1.90;;
54143;SDS011;40050;47.324;18.792;2022-08-01T12:20:45;2.80;;;1.80;;
54143;SDS011;40050;47.324;18.792;2022-08-01T12:22:47;2.40;;;1.60;;
54143;SDS011;40050;47.324;18.792;2022-08-01T12:24:53;2.30;;;1.70;;
54143;SDS011;40050;47.324;18.792;2022-08-01T12:26:54;3.70;;;1.50;;
54143;SDS011;40050;47.324;18.792;2022-08-01T12:28:55;2.00;;;1.80;;
54143;SDS011;40050;47.324;18.792;2022-08-01T12:30:56;2.30;;;1.70;;
54143;SDS011;40050;47.324;18.792;2022-08-01T12:32:59;3.20;;;1.60;;
54143;SDS011;40050;47.324;18.792;2022-08-01T12:35:01;2.20;;;1.60;;
54143;SDS011;40050;47.324;18.792;2022-08-01T12:37:01;3.50;;;1.80;;
54143;SDS011;40050;47.324;18.792;2022-08-01T12:39:02;2.20;;;1.70;;